createdAt,value
2018-06-03T00:02:24.718Z,80.20
2018-06-03T00:04:53.104Z,80.12
2018-06-03T00:07:21.534Z,78.03
2018-06-03T00:09:49.957Z,77.02
2018-06-03T00:12:18.327Z,78.78
2018-06-03T00:14:46.685Z,79.49
2018-06-03T00:17:15.422Z,79.65
2018-06-03T00:19:44.036Z,79.47
2018-06-03T00:22:27.748Z,79.16
2018-06-03T00:24:56.269Z,79.34
2018-06-03T00:27:25.194Z,79.08
2018-06-03T00:29:54.029Z,78.95
2018-06-03T00:32:22.740Z,79.33
2018-06-03T00:34:51.403Z,77.29
2018-06-03T00:37:20.121Z,78.48
2018-06-03T00:39:48.769Z,76.58
2018-06-03T00:42:17.452Z,78.01
2018-06-03T00:44:46.140Z,76.18
2018-06-03T00:47:14.953Z,77.65
2018-06-03T00:49:44.492Z,78.41
2018-06-03T00:52:13.153Z,78.65
2018-06-03T00:54:41.780Z,78.71
2018-06-03T00:57:11.417Z,79.34
2018-06-03T00:59:40.106Z,79.52
2018-06-03T01:02:08.814Z,77.34
2018-06-03T01:04:37.456Z,78.49
2018-06-03T01:07:06.358Z,79.27
2018-06-03T01:09:35.002Z,79.52
2018-06-03T01:12:03.677Z,79.58
2018-06-03T01:14:32.363Z,79.50
2018-06-03T01:17:01.039Z,79.65
2018-06-03T01:19:29.707Z,79.86
2018-06-03T01:21:58.600Z,79.83
2018-06-03T01:24:27.231Z,79.84
2018-06-03T01:26:55.924Z,80.31
2018-06-03T01:29:24.587Z,80.39
2018-06-03T01:31:53.251Z,80.46
2018-06-03T01:34:21.886Z,80.34
2018-06-03T01:36:50.580Z,80.47
2018-06-03T01:39:19.497Z,80.50
2018-06-03T01:41:48.201Z,80.70
2018-06-03T01:44:17.828Z,78.90
2018-06-03T01:46:48.701Z,79.64
2018-06-03T01:49:18.717Z,80.04
2018-06-03T01:51:47.425Z,80.41
2018-06-03T01:54:16.100Z,80.89
2018-06-03T01:56:44.752Z,78.89
2018-06-03T01:59:15.842Z,79.91
2018-06-03T02:01:46.908Z,80.62
2018-06-03T02:04:15.593Z,78.98
2018-06-03T02:06:46.383Z,80.10
2018-06-03T02:09:15.055Z,80.47
2018-06-03T02:11:46.139Z,80.84
2018-06-03T02:14:14.844Z,81.32
2018-06-03T02:16:43.512Z,81.35
2018-06-03T02:19:12.207Z,81.36
2018-06-03T02:21:40.876Z,81.08
2018-06-03T02:24:09.531Z,81.32
2018-06-03T02:26:38.164Z,81.33
2018-06-03T02:29:06.842Z,81.36
2018-06-03T02:31:36.379Z,81.33
2018-06-03T02:34:05.060Z,81.29
2018-06-03T02:36:33.694Z,81.10
2018-06-03T02:39:02.359Z,81.39
2018-06-03T02:41:31.053Z,79.35
2018-06-03T02:43:59.715Z,80.29
2018-06-03T02:46:30.991Z,80.61
2018-06-03T02:49:03.649Z,80.93
2018-06-03T02:51:32.522Z,81.54
2018-06-03T02:54:01.193Z,81.42
2018-06-03T02:56:34.905Z,81.35
2018-06-03T02:59:03.578Z,81.79
2018-06-03T03:01:32.245Z,81.50
2018-06-03T03:04:00.914Z,81.71
2018-06-03T03:06:29.541Z,81.62
2018-06-03T03:08:58.238Z,81.72
2018-06-03T03:11:26.921Z,81.99
2018-06-03T03:13:55.603Z,82.02
2018-06-03T03:16:24.644Z,81.99
2018-06-03T03:18:53.297Z,81.87
2018-06-03T03:21:21.920Z,82.12
2018-06-03T03:23:50.621Z,81.91
2018-06-03T03:26:19.331Z,81.87
2018-06-03T03:28:47.995Z,81.68
2018-06-03T03:31:17.273Z,82.26
2018-06-03T03:33:45.934Z,82.23
2018-06-03T03:36:16.633Z,82.58
2018-06-03T03:38:45.290Z,82.57
2018-06-03T03:41:14.853Z,82.17
2018-06-03T03:43:46.828Z,82.12
2018-06-03T03:46:15.488Z,82.27
2018-06-03T03:48:44.149Z,82.50
2018-06-03T03:51:12.878Z,82.35
2018-06-03T03:53:41.564Z,82.29
2018-06-03T03:56:10.287Z,82.18
2018-06-03T03:58:38.903Z,82.12
2018-06-03T04:01:07.587Z,82.26
2018-06-03T04:03:38.595Z,81.94
2018-06-03T04:06:07.266Z,82.10
2018-06-03T04:08:39.221Z,81.98
2018-06-03T04:11:09.950Z,81.87
2018-06-03T04:13:38.578Z,81.88
2018-06-03T04:16:07.287Z,81.81
2018-06-03T04:18:41.429Z,79.34
2018-06-03T04:21:14.150Z,80.17
2018-06-03T04:23:43.149Z,81.00
2018-06-03T04:26:11.905Z,81.20
2018-06-03T04:28:43.222Z,81.30
2018-06-03T04:31:11.927Z,81.38
2018-06-03T04:33:40.576Z,81.37
2018-06-03T04:36:09.257Z,81.26
2018-06-03T04:38:38.872Z,81.08
2018-06-03T04:41:07.560Z,80.85
2018-06-03T04:43:36.208Z,80.69
2018-06-03T04:46:04.891Z,80.31
2018-06-03T04:48:33.565Z,80.32
2018-06-03T04:51:02.251Z,79.91
2018-06-03T04:53:33.286Z,79.65
2018-06-03T04:56:05.428Z,79.13
2018-06-03T04:58:34.073Z,79.33
2018-06-03T05:01:02.736Z,79.87
2018-06-03T05:03:48.021Z,79.63
2018-06-03T05:06:24.897Z,79.69
2018-06-03T05:09:03.775Z,79.63
2018-06-03T05:11:48.393Z,79.38
2018-06-03T05:14:18.637Z,79.17
2018-06-03T05:16:49.768Z,76.07
2018-06-03T05:19:18.440Z,74.03
2018-06-03T05:21:51.769Z,75.96
2018-06-03T05:24:20.799Z,76.27
2018-06-03T05:26:49.682Z,76.51
2018-06-03T05:29:18.841Z,76.49
2018-06-03T05:31:47.558Z,76.19
2018-06-03T05:34:16.217Z,76.36
2018-06-03T05:36:45.481Z,76.11
2018-06-03T05:39:16.117Z,75.84
2018-06-03T05:41:44.777Z,75.56
2018-06-03T05:44:15.563Z,75.40
2018-06-03T05:46:45.424Z,75.30
2018-06-03T05:52:13.749Z,72.71
2018-06-03T05:54:46.324Z,73.63
2018-06-03T05:57:15.007Z,73.74
2018-06-03T05:59:45.493Z,73.77
2018-06-03T06:02:14.951Z,70.18
2018-06-03T06:04:43.607Z,72.27
2018-06-03T06:07:14.585Z,72.61
2018-06-03T06:09:51.034Z,72.40
2018-06-03T06:12:30.083Z,72.54
2018-06-03T06:15:05.407Z,71.81
2018-06-03T06:20:23.606Z,69.78
2018-06-03T06:23:00.033Z,70.22
2018-06-03T06:25:28.674Z,70.28
2018-06-03T06:27:57.339Z,69.80
2018-06-03T06:30:26.982Z,69.42
2018-06-03T06:35:46.094Z,68.57
2018-06-03T06:38:18.500Z,67.85
2018-06-03T06:40:56.312Z,68.43
2018-06-03T06:43:25.303Z,68.36
2018-06-03T06:45:54.035Z,67.70
2018-06-03T06:48:24.347Z,67.05
2018-06-03T06:51:06.782Z,66.96
2018-06-03T06:53:35.455Z,66.72
2018-06-03T06:56:05.058Z,66.30
2018-06-03T06:58:41.419Z,65.58
2018-06-03T07:01:12.179Z,65.00
2018-06-03T07:03:41.515Z,64.88
2018-06-03T07:06:10.159Z,64.96
2018-06-03T07:08:38.865Z,64.69
2018-06-03T07:11:16.645Z,64.46
2018-06-03T07:16:33.023Z,61.69
2018-06-03T07:19:01.736Z,62.01
2018-06-03T07:21:47.983Z,61.75
2018-06-03T07:24:24.143Z,61.47
2018-06-03T07:26:52.784Z,60.41
2018-06-03T07:29:22.689Z,60.50
2018-06-03T07:31:51.310Z,59.63
2018-06-03T07:34:23.185Z,59.05
2018-06-03T07:36:51.835Z,53.04
2018-06-03T07:39:20.522Z,56.78
2018-06-03T07:41:52.194Z,57.49
2018-06-03T07:47:09.086Z,58.43
2018-06-03T07:49:38.036Z,57.74
2018-06-03T07:52:06.691Z,56.93
2018-06-03T07:54:35.411Z,49.40
2018-06-03T07:57:04.105Z,53.65
2018-06-03T07:59:34.205Z,54.39
2018-06-03T08:02:04.486Z,54.99
2018-06-03T08:04:33.503Z,55.73
2018-06-03T08:09:52.342Z,56.18
2018-06-03T08:12:36.524Z,55.71
2018-06-03T08:15:06.861Z,55.41
2018-06-03T08:17:35.482Z,55.63
2018-06-03T08:20:06.193Z,55.69
2018-06-03T08:22:37.888Z,55.26
2018-06-03T08:25:07.991Z,55.68
2018-06-03T08:27:36.772Z,55.57
2018-06-03T08:30:23.214Z,55.91
2018-06-03T08:33:00.342Z,55.44
2018-06-03T08:35:30.521Z,55.32
2018-06-03T08:49:08.385Z,54.04
2018-06-03T08:51:37.258Z,54.41
2018-06-03T08:59:42.785Z,53.29
2018-06-03T09:02:11.963Z,53.43
2018-06-03T09:04:40.718Z,52.82
2018-06-03T09:07:11.228Z,52.77
2018-06-03T09:09:46.836Z,53.40
2018-06-03T09:12:23.857Z,53.32
2018-06-03T09:14:55.370Z,52.82
2018-06-03T09:17:26.479Z,52.23
2018-06-03T09:20:00.742Z,52.43
2018-06-03T09:22:37.644Z,51.25
2018-06-03T09:25:07.391Z,51.01
2018-06-03T09:27:36.664Z,50.82
2018-06-03T09:32:54.449Z,49.81
2018-06-03T09:35:27.174Z,49.55
2018-06-03T09:37:56.084Z,49.45
2018-06-03T09:40:25.059Z,49.56
2018-06-03T09:43:01.372Z,48.89
2018-06-03T09:45:32.394Z,49.08
2018-06-03T09:48:08.461Z,48.92
2018-06-03T09:50:41.609Z,48.52
2018-06-03T09:53:14.857Z,48.44
2018-06-03T09:55:50.872Z,48.58
2018-06-03T09:58:20.753Z,48.91
2018-06-03T10:00:50.177Z,48.61
2018-06-03T10:03:21.731Z,48.44
2018-06-03T10:05:53.285Z,47.79
2018-06-03T10:08:32.806Z,48.31
2018-06-03T10:11:03.363Z,41.61
2018-06-03T10:13:32.271Z,45.05
2018-06-03T10:16:01.140Z,40.50
2018-06-03T10:18:32.903Z,40.69
2018-06-03T10:21:03.196Z,44.84
2018-06-03T10:23:32.272Z,45.59
2018-06-03T10:26:08.491Z,44.54
2018-06-03T10:28:40.586Z,45.72
2018-06-03T10:31:09.826Z,44.06
2018-06-03T10:33:39.652Z,43.49
2018-06-03T10:36:08.704Z,37.75
2018-06-03T10:38:41.347Z,41.84
2018-06-03T10:41:18.622Z,43.20
2018-06-03T10:43:53.212Z,37.80
2018-06-03T10:46:22.851Z,37.69
2018-06-03T10:48:51.570Z,41.28
2018-06-03T10:51:21.162Z,41.74
2018-06-03T10:53:52.839Z,42.59
2018-06-03T10:56:22.089Z,42.77
2018-06-03T10:58:55.248Z,43.55
2018-06-03T11:01:23.890Z,43.68
2018-06-03T11:03:54.917Z,44.03
2018-06-03T11:06:24.867Z,43.44
2018-06-03T11:08:54.039Z,43.60
2018-06-03T11:11:24.770Z,43.76
2018-06-03T11:13:54.416Z,39.13
2018-06-03T11:16:24.591Z,38.50
2018-06-03T11:21:40.915Z,39.27
2018-06-03T11:24:10.110Z,39.67
2018-06-03T11:26:39.726Z,40.36
2018-06-03T11:29:09.574Z,40.97
2018-06-03T11:31:38.253Z,41.34
2018-06-03T11:34:07.410Z,40.46
2018-06-03T11:36:36.388Z,41.56
2018-06-03T11:39:10.597Z,40.90
2018-06-03T11:41:39.209Z,40.41
2018-06-03T11:44:08.892Z,40.12
2018-06-03T11:46:38.088Z,40.25
2018-06-03T11:49:06.777Z,40.13
2018-06-03T11:51:35.430Z,39.04
2018-06-03T11:54:04.032Z,39.89
2018-06-03T11:57:00.297Z,38.64
2018-06-03T11:59:43.218Z,39.02
2018-06-03T12:02:11.850Z,39.50
2018-06-03T12:04:40.547Z,39.62
2018-06-03T12:07:09.365Z,38.84
2018-06-03T12:09:37.994Z,39.14
2018-06-03T12:12:06.681Z,39.84
2018-06-03T12:14:38.197Z,34.46
2018-06-03T12:17:09.585Z,37.27
2018-06-03T12:19:41.694Z,37.80
2018-06-03T12:22:12.895Z,38.08
2018-06-03T12:24:43.902Z,38.24
2018-06-03T12:27:20.666Z,33.85
2018-06-03T12:29:49.572Z,37.44
2018-06-03T12:32:19.089Z,38.71
2018-06-03T12:34:47.739Z,38.33
2018-06-03T12:37:16.443Z,37.97
2018-06-03T12:39:47.084Z,38.22
2018-06-03T12:42:23.710Z,39.10
2018-06-03T12:44:54.186Z,39.54
2018-06-03T12:47:33.629Z,41.25
2018-06-03T12:50:11.931Z,40.45
2018-06-03T12:52:42.979Z,41.56
2018-06-03T12:55:12.158Z,41.60
2018-06-03T13:03:23.910Z,39.70
2018-06-03T13:05:52.961Z,40.86
2018-06-03T13:11:11.487Z,39.83
2018-06-03T13:13:45.360Z,39.37
2018-06-03T13:16:16.763Z,35.82
2018-06-03T13:18:48.427Z,38.52
2018-06-03T13:21:25.633Z,35.46
2018-06-03T13:23:57.844Z,37.52
2018-06-03T13:26:31.155Z,37.83
2018-06-03T13:29:05.439Z,37.52
2018-06-03T13:42:52.222Z,36.88
2018-06-03T13:45:21.197Z,37.21
2018-06-03T13:53:30.809Z,34.44
2018-06-03T14:01:51.645Z,32.41
2018-06-03T14:07:12.230Z,34.88
2018-06-03T14:12:30.020Z,35.77
2018-06-03T14:17:49.773Z,33.32
2018-06-03T14:25:59.597Z,35.61
2018-06-03T14:34:05.803Z,36.36
2018-06-03T14:42:23.327Z,35.79
2018-06-03T14:44:55.123Z,35.79
2018-06-03T14:47:33.917Z,34.86
2018-06-03T14:52:56.008Z,34.71
2018-06-03T15:09:34.746Z,29.97
2018-06-03T15:12:11.889Z,29.31
2018-06-03T15:14:45.139Z,31.04
2018-06-03T15:17:17.666Z,31.79
2018-06-03T15:34:07.486Z,31.12
2018-06-03T15:36:46.284Z,30.96
2018-06-03T15:44:53.647Z,29.06
2018-06-03T15:47:23.427Z,31.19
2018-06-03T15:52:53.658Z,30.84
2018-06-03T15:58:11.916Z,30.51
2018-06-03T16:00:41.641Z,31.23
2018-06-03T16:03:16.143Z,30.73
2018-06-03T16:05:46.932Z,31.12
2018-06-03T16:08:16.197Z,27.51
2018-06-03T16:10:45.245Z,29.85
2018-06-03T16:13:17.160Z,30.58
2018-06-03T16:15:55.200Z,31.03
2018-06-03T16:18:24.152Z,31.31
2018-06-03T16:20:53.337Z,31.51
2018-06-03T16:23:24.652Z,31.00
2018-06-03T16:28:40.940Z,30.57
2018-06-03T16:31:09.584Z,30.19
2018-06-03T16:33:39.711Z,26.66
2018-06-03T16:36:10.264Z,29.23
2018-06-03T16:38:54.359Z,29.52
2018-06-03T16:41:23.980Z,29.62
2018-06-03T16:46:57.452Z,30.88
2018-06-03T16:49:29.781Z,30.37
2018-06-03T16:54:46.708Z,30.14
2018-06-03T16:57:15.382Z,30.60
2018-06-03T17:02:37.048Z,30.76
2018-06-03T17:05:21.011Z,26.88
2018-06-03T17:07:50.760Z,29.45
2018-06-03T17:10:22.208Z,29.85
2018-06-03T17:18:30.034Z,30.00
2018-06-03T17:26:34.758Z,29.74
2018-06-03T17:29:18.999Z,29.35
2018-06-03T17:31:51.881Z,25.45
2018-06-03T17:34:28.820Z,28.02
2018-06-03T17:36:57.722Z,29.08
2018-06-03T17:39:28.085Z,25.85
2018-06-03T17:41:59.548Z,28.29
2018-06-03T17:44:28.396Z,25.67
2018-06-03T17:46:58.612Z,28.49
2018-06-03T17:49:27.325Z,29.56
2018-06-03T17:51:55.989Z,30.22
2018-06-03T17:54:25.069Z,31.04
2018-06-03T18:02:37.283Z,34.55
2018-06-03T18:05:07.496Z,32.49
2018-06-03T18:13:25.474Z,38.42
2018-06-03T18:15:56.462Z,39.26
2018-06-03T18:21:20.581Z,40.66
2018-06-03T18:23:58.641Z,41.37
2018-06-03T18:29:21.223Z,42.47
2018-06-03T18:54:11.098Z,47.79
2018-06-03T18:56:48.762Z,48.08
2018-06-03T18:59:29.528Z,47.27
2018-06-03T19:04:46.760Z,47.69
2018-06-03T19:07:17.960Z,48.36
2018-06-03T19:09:49.015Z,50.25
2018-06-03T19:20:44.714Z,55.31
2018-06-03T19:23:13.806Z,54.75
2018-06-03T19:25:42.513Z,55.13
2018-06-03T19:28:11.223Z,55.37
2018-06-03T19:30:50.214Z,55.80
2018-06-03T19:33:18.938Z,55.78
2018-06-03T19:35:47.569Z,55.99
2018-06-03T19:38:18.692Z,56.73
2018-06-03T19:40:54.079Z,57.49
2018-06-03T19:43:22.685Z,57.94
2018-06-03T19:45:53.437Z,57.35
2018-06-03T19:48:22.138Z,58.78
2018-06-03T19:50:50.860Z,59.49
2018-06-03T19:53:29.402Z,59.27
2018-06-03T19:55:58.135Z,59.23
2018-06-03T19:58:26.962Z,59.70
2018-06-03T20:03:43.785Z,60.77
2018-06-03T20:06:13.838Z,59.91
2018-06-03T20:08:42.465Z,61.51
2018-06-03T20:11:13.177Z,62.02
2018-06-03T20:13:41.804Z,62.46
2018-06-03T20:16:12.440Z,61.20
2018-06-03T20:18:41.084Z,62.64
2018-06-03T20:21:26.876Z,63.16
2018-06-03T20:23:56.931Z,63.22
2018-06-03T20:26:26.025Z,63.74
2018-06-03T20:28:54.803Z,63.59
2018-06-03T20:31:23.658Z,63.28
2018-06-03T20:33:52.761Z,63.29
2018-06-03T20:36:23.224Z,63.44
2018-06-03T20:38:55.944Z,63.49
2018-06-03T20:41:26.929Z,63.87
2018-06-03T20:43:57.467Z,64.14
2018-06-03T20:46:27.188Z,65.34
2018-06-03T20:54:34.372Z,64.40
2018-06-03T20:57:03.104Z,65.95
2018-06-03T21:02:24.307Z,66.70
2018-06-03T21:04:53.233Z,66.51
2018-06-03T21:07:29.597Z,66.22
2018-06-03T21:09:59.904Z,65.95
2018-06-03T21:12:31.957Z,65.91
2018-06-03T21:15:01.830Z,66.40
2018-06-03T21:17:35.946Z,66.90
2018-06-03T21:20:05.024Z,64.88
2018-06-03T21:22:33.909Z,66.00
2018-06-03T21:25:04.192Z,66.32
2018-06-03T21:27:32.911Z,66.51
2018-06-03T21:30:21.194Z,66.54
2018-06-03T21:32:50.483Z,66.97
2018-06-03T21:35:22.322Z,67.11
2018-06-03T21:37:51.194Z,67.00
2018-06-03T21:40:20.317Z,67.57
2018-06-03T21:42:50.071Z,65.52
2018-06-03T21:45:19.022Z,67.25
2018-06-03T21:47:51.156Z,68.03
2018-06-03T21:50:20.315Z,68.05
2018-06-03T21:52:51.295Z,68.55
2018-06-03T21:55:20.243Z,68.25
2018-06-03T21:57:49.253Z,69.22
2018-06-03T22:00:23.796Z,69.66
2018-06-03T22:02:56.000Z,69.51
2018-06-03T22:05:34.349Z,70.86
2018-06-03T22:08:03.392Z,70.47
2018-06-03T22:10:32.502Z,70.51
2018-06-03T22:13:04.922Z,70.81
2018-06-03T22:15:35.825Z,70.14
2018-06-03T22:18:04.685Z,67.51
2018-06-03T22:20:33.596Z,66.63
2018-06-03T22:23:07.464Z,68.19
2018-06-03T22:25:36.647Z,68.87
2018-06-03T22:28:06.235Z,67.37
2018-06-03T22:30:35.619Z,69.12
2018-06-03T22:35:53.499Z,70.83
2018-06-03T22:38:22.105Z,71.20
2018-06-03T22:40:51.301Z,70.77
2018-06-03T22:43:23.172Z,70.25
2018-06-03T22:45:52.003Z,70.16
2018-06-03T22:48:23.595Z,70.22
2018-06-03T22:56:31.950Z,69.12
2018-06-03T22:59:14.970Z,70.51
2018-06-03T23:01:46.175Z,70.72
2018-06-03T23:04:20.191Z,70.98
2018-06-03T23:06:55.749Z,71.02
2018-06-03T23:09:44.010Z,70.97
2018-06-03T23:12:18.971Z,70.80
2018-06-03T23:14:48.525Z,70.75
2018-06-03T23:20:06.813Z,71.65
2018-06-03T23:22:43.253Z,70.87
2018-06-03T23:25:12.158Z,72.13
2018-06-03T23:27:42.777Z,71.84
2018-06-03T23:30:14.829Z,71.73
2018-06-03T23:32:45.596Z,72.24
2018-06-03T23:35:15.418Z,73.33
2018-06-03T23:51:57.747Z,73.46
